Cincinnati, Ohio
Traffic Map
Current Weather Conditions
Cincinnati, Ohio
Clear
Clear
17°
Feels Like: 17°
Wind Chill: 17° Ceiling: Unl
Heat Index: 17° Visibility: 10mi
Dew Point: 16° Wind: 0mph
Humidity: 93% Direction: ° ()
Pressure: 30.16in Gusts: 0mph
Raw Report DataKLUK 280553Z AUTO 00000KT 10SM CLR 17/16 A3016 RMK AO2 SLP210 T01720161 10228 20172 51007
Traffic Incident Summary
Active as of:
Severity:
Category:
InformationThere was an issue retrieving the traffic information for this location. Please try a different location or try again shortly.
Advertisements
Track Severe Weather on mobile